sensor_id;sensor_type;location;lat;lon;timestamp;temperature;humidity
13482;DHT22;6813;60.352;15.746;2023-02-01T00:01:17;-1.80;99.90
13482;DHT22;6813;60.352;15.746;2023-02-01T00:03:43;-1.60;99.90
13482;DHT22;6813;60.352;15.746;2023-02-01T00:06:09;-1.50;99.90
13482;DHT22;6813;60.352;15.746;2023-02-01T00:08:35;-1.50;99.90
13482;DHT22;6813;60.352;15.746;2023-02-01T00:11:06;-1.40;99.90
13482;DHT22;6813;60.352;15.746;2023-02-01T00:13:34;-1.40;99.90
13482;DHT22;6813;60.352;15.746;2023-02-01T00:16:04;-1.40;99.90
13482;DHT22;6813;60.352;15.746;2023-02-01T00:18:30;-1.30;99.90
13482;DHT22;6813;60.352;15.746;2023-02-01T00:20:56;-1.30;99.90
13482;DHT22;6813;60.352;15.746;2023-02-01T00:23:22;-1.30;99.90
13482;DHT22;6813;60.352;15.746;2023-02-01T00:25:47;-1.30;99.90
13482;DHT22;6813;60.352;15.746;2023-02-01T00:28:13;-1.40;99.90
13482;DHT22;6813;60.352;15.746;2023-02-01T00:30:39;-1.50;99.90
13482;DHT22;6813;60.352;15.746;2023-02-01T00:33:04;-1.50;99.90
13482;DHT22;6813;60.352;15.746;2023-02-01T00:35:30;-1.50;99.90
13482;DHT22;6813;60.352;15.746;2023-02-01T00:37:56;-1.50;99.90
13482;DHT22;6813;60.352;15.746;2023-02-01T00:40:24;-1.40;99.90
13482;DHT22;6813;60.352;15.746;2023-02-01T00:42:50;-1.20;99.90
13482;DHT22;6813;60.352;15.746;2023-02-01T00:45:16;-1.10;99.90
13482;DHT22;6813;60.352;15.746;2023-02-01T00:47:41;-1.00;99.90
13482;DHT22;6813;60.352;15.746;2023-02-01T00:50:07;-0.90;99.90
13482;DHT22;6813;60.352;15.746;2023-02-01T00:52:33;-0.90;99.90
13482;DHT22;6813;60.352;15.746;2023-02-01T00:54:59;-0.80;99.90
13482;DHT22;6813;60.352;15.746;2023-02-01T00:57:25;-0.80;99.90
13482;DHT22;6813;60.352;15.746;2023-02-01T00:59:50;-0.80;99.90
13482;DHT22;6813;60.352;15.746;2023-02-01T01:02:16;-0.70;99.90
13482;DHT22;6813;60.352;15.746;2023-02-01T01:04:42;-0.70;99.90
13482;DHT22;6813;60.352;15.746;2023-02-01T01:07:07;-0.70;99.90
13482;DHT22;6813;60.352;15.746;2023-02-01T01:09:34;-0.80;99.90
13482;DHT22;6813;60.352;15.746;2023-02-01T01:11:59;-0.80;99.90
13482;DHT22;6813;60.352;15.746;2023-02-01T01:14:29;-0.80;99.90
13482;DHT22;6813;60.352;15.746;2023-02-01T01:16:55;-0.70;99.90
13482;DHT22;6813;60.352;15.746;2023-02-01T01:19:21;-0.70;99.90
13482;DHT22;6813;60.352;15.746;2023-02-01T01:21:46;-0.70;99.90
13482;DHT22;6813;60.352;15.746;2023-02-01T01:24:12;-0.70;99.90
13482;DHT22;6813;60.352;15.746;2023-02-01T01:26:38;-0.70;99.90
13482;DHT22;6813;60.352;15.746;2023-02-01T01:29:04;-0.60;99.90
13482;DHT22;6813;60.352;15.746;2023-02-01T01:31:30;-0.60;99.90
13482;DHT22;6813;60.352;15.746;2023-02-01T01:33:58;-0.70;99.90
13482;DHT22;6813;60.352;15.746;2023-02-01T01:36:25;-0.90;99.90
13482;DHT22;6813;60.352;15.746;2023-02-01T01:38:52;-1.10;99.90
13482;DHT22;6813;60.352;15.746;2023-02-01T01:41:20;-1.10;99.90
13482;DHT22;6813;60.352;15.746;2023-02-01T01:43:57;-1.00;99.90
13482;DHT22;6813;60.352;15.746;2023-02-01T01:46:43;-1.00;99.90
13482;DHT22;6813;60.352;15.746;2023-02-01T01:49:13;-1.00;99.90
13482;DHT22;6813;60.352;15.746;2023-02-01T01:51:43;-0.90;99.90
13482;DHT22;6813;60.352;15.746;2023-02-01T01:54:11;-0.80;99.90
13482;DHT22;6813;60.352;15.746;2023-02-01T01:56:39;-0.80;99.90
13482;DHT22;6813;60.352;15.746;2023-02-01T01:59:06;-0.70;99.90
13482;DHT22;6813;60.352;15.746;2023-02-01T02:01:33;-0.70;99.90
13482;DHT22;6813;60.352;15.746;2023-02-01T02:03:59;-0.70;99.90
13482;DHT22;6813;60.352;15.746;2023-02-01T02:09:00;-0.70;99.90
13482;DHT22;6813;60.352;15.746;2023-02-01T02:11:26;-0.70;99.90
13482;DHT22;6813;60.352;15.746;2023-02-01T02:13:54;-0.90;99.90
13482;DHT22;6813;60.352;15.746;2023-02-01T02:16:31;-1.20;99.90
13482;DHT22;6813;60.352;15.746;2023-02-01T02:27:27;-1.70;99.90
13482;DHT22;6813;60.352;15.746;2023-02-01T02:38:58;-1.20;99.90
13482;DHT22;6813;60.352;15.746;2023-02-01T02:42:00;-1.10;99.90
13482;DHT22;6813;60.352;15.746;2023-02-01T02:45:03;-1.00;99.90
13482;DHT22;6813;60.352;15.746;2023-02-01T02:47:54;-1.00;99.90
13482;DHT22;6813;60.352;15.746;2023-02-01T02:51:18;-1.00;99.90
13482;DHT22;6813;60.352;15.746;2023-02-01T02:56:40;-1.00;99.90
13482;DHT22;6813;60.352;15.746;2023-02-01T02:59:27;-1.00;99.90
13482;DHT22;6813;60.352;15.746;2023-02-01T03:02:13;-1.10;99.90
13482;DHT22;6813;60.352;15.746;2023-02-01T03:04:58;-1.20;99.90
13482;DHT22;6813;60.352;15.746;2023-02-01T03:10:42;-1.20;99.90
13482;DHT22;6813;60.352;15.746;2023-02-01T03:15:43;-1.10;99.90
13482;DHT22;6813;60.352;15.746;2023-02-01T03:18:16;-1.20;99.90
13482;DHT22;6813;60.352;15.746;2023-02-01T03:20:46;-1.40;99.90
13482;DHT22;6813;60.352;15.746;2023-02-01T03:23:15;-1.40;99.90
13482;DHT22;6813;60.352;15.746;2023-02-01T03:25:42;-1.20;99.90
13482;DHT22;6813;60.352;15.746;2023-02-01T03:28:10;-1.00;99.90
13482;DHT22;6813;60.352;15.746;2023-02-01T03:30:38;-1.00;99.90
13482;DHT22;6813;60.352;15.746;2023-02-01T03:33:11;-0.90;99.90
13482;DHT22;6813;60.352;15.746;2023-02-01T03:47:02;-0.80;99.90
13482;DHT22;6813;60.352;15.746;2023-02-01T03:49:30;-0.70;99.90
13482;DHT22;6813;60.352;15.746;2023-02-01T03:51:59;-0.70;99.90
13482;DHT22;6813;60.352;15.746;2023-02-01T03:54:27;-0.60;99.90
13482;DHT22;6813;60.352;15.746;2023-02-01T03:56:56;-0.60;99.90
13482;DHT22;6813;60.352;15.746;2023-02-01T03:59:23;-0.70;99.90
13482;DHT22;6813;60.352;15.746;2023-02-01T04:01:49;-0.90;99.90
13482;DHT22;6813;60.352;15.746;2023-02-01T04:04:15;-0.90;99.90
13482;DHT22;6813;60.352;15.746;2023-02-01T04:06:49;-1.00;99.90
13482;DHT22;6813;60.352;15.746;2023-02-01T04:09:15;-0.80;99.90
13482;DHT22;6813;60.352;15.746;2023-02-01T04:11:40;-0.80;99.90
13482;DHT22;6813;60.352;15.746;2023-02-01T04:14:06;-0.80;99.90
13482;DHT22;6813;60.352;15.746;2023-02-01T04:16:32;-0.80;99.90
13482;DHT22;6813;60.352;15.746;2023-02-01T04:18:58;-0.80;99.90
13482;DHT22;6813;60.352;15.746;2023-02-01T04:21:25;-1.00;99.90
13482;DHT22;6813;60.352;15.746;2023-02-01T04:23:52;-0.90;99.90
13482;DHT22;6813;60.352;15.746;2023-02-01T04:26:17;-0.80;99.90
13482;DHT22;6813;60.352;15.746;2023-02-01T04:28:44;-0.70;99.90
13482;DHT22;6813;60.352;15.746;2023-02-01T04:31:13;-0.60;99.90
13482;DHT22;6813;60.352;15.746;2023-02-01T04:33:39;-0.50;99.90
13482;DHT22;6813;60.352;15.746;2023-02-01T04:36:05;-0.40;99.90
13482;DHT22;6813;60.352;15.746;2023-02-01T04:38:31;-0.40;99.90
13482;DHT22;6813;60.352;15.746;2023-02-01T04:40:58;-0.40;99.90
13482;DHT22;6813;60.352;15.746;2023-02-01T04:43:24;-0.40;99.90
13482;DHT22;6813;60.352;15.746;2023-02-01T04:45:50;-0.40;99.90
13482;DHT22;6813;60.352;15.746;2023-02-01T04:48:18;-0.40;99.90
13482;DHT22;6813;60.352;15.746;2023-02-01T04:50:45;-0.50;99.90
13482;DHT22;6813;60.352;15.746;2023-02-01T04:53:17;-0.50;99.90
13482;DHT22;6813;60.352;15.746;2023-02-01T04:55:43;-0.50;99.90
13482;DHT22;6813;60.352;15.746;2023-02-01T04:58:10;-0.50;99.90
13482;DHT22;6813;60.352;15.746;2023-02-01T05:00:36;-0.40;99.90
13482;DHT22;6813;60.352;15.746;2023-02-01T05:03:03;-0.40;99.90
13482;DHT22;6813;60.352;15.746;2023-02-01T05:05:28;-0.30;99.90
13482;DHT22;6813;60.352;15.746;2023-02-01T05:07:54;-0.40;99.90
13482;DHT22;6813;60.352;15.746;2023-02-01T05:10:21;-0.40;99.90
13482;DHT22;6813;60.352;15.746;2023-02-01T05:12:49;-0.50;99.90
13482;DHT22;6813;60.352;15.746;2023-02-01T05:15:33;-0.60;99.90
13482;DHT22;6813;60.352;15.746;2023-02-01T05:17:59;-0.70;99.90
13482;DHT22;6813;60.352;15.746;2023-02-01T05:20:25;-0.70;99.90
13482;DHT22;6813;60.352;15.746;2023-02-01T05:22:51;-0.70;99.90
13482;DHT22;6813;60.352;15.746;2023-02-01T05:25:17;-0.60;99.90
13482;DHT22;6813;60.352;15.746;2023-02-01T05:27:42;-0.60;99.90
13482;DHT22;6813;60.352;15.746;2023-02-01T05:30:09;-0.50;99.90
13482;DHT22;6813;60.352;15.746;2023-02-01T05:32:35;-0.50;99.90
13482;DHT22;6813;60.352;15.746;2023-02-01T05:35:01;-0.40;99.90
13482;DHT22;6813;60.352;15.746;2023-02-01T05:37:26;-0.40;99.90
13482;DHT22;6813;60.352;15.746;2023-02-01T05:39:52;-0.40;99.90
13482;DHT22;6813;60.352;15.746;2023-02-01T05:42:18;-0.40;99.90
13482;DHT22;6813;60.352;15.746;2023-02-01T05:44:44;-0.40;99.90
13482;DHT22;6813;60.352;15.746;2023-02-01T05:47:10;-0.40;99.90
13482;DHT22;6813;60.352;15.746;2023-02-01T05:49:35;-0.50;99.90
13482;DHT22;6813;60.352;15.746;2023-02-01T05:52:01;-0.50;99.90
13482;DHT22;6813;60.352;15.746;2023-02-01T05:54:27;-0.50;99.90
13482;DHT22;6813;60.352;15.746;2023-02-01T05:56:53;-0.50;99.90
13482;DHT22;6813;60.352;15.746;2023-02-01T05:59:19;-0.40;99.90
13482;DHT22;6813;60.352;15.746;2023-02-01T06:01:45;-0.40;99.90
13482;DHT22;6813;60.352;15.746;2023-02-01T06:04:10;-0.40;99.90
13482;DHT22;6813;60.352;15.746;2023-02-01T06:06:36;-0.40;99.90
13482;DHT22;6813;60.352;15.746;2023-02-01T06:09:03;-0.40;99.90
13482;DHT22;6813;60.352;15.746;2023-02-01T06:11:29;-0.40;99.90
13482;DHT22;6813;60.352;15.746;2023-02-01T06:13:55;-0.40;99.90
13482;DHT22;6813;60.352;15.746;2023-02-01T06:16:21;-0.40;99.90
13482;DHT22;6813;60.352;15.746;2023-02-01T06:18:47;-0.40;99.90
13482;DHT22;6813;60.352;15.746;2023-02-01T06:21:12;-0.40;99.90
13482;DHT22;6813;60.352;15.746;2023-02-01T06:23:53;-0.30;99.90
13482;DHT22;6813;60.352;15.746;2023-02-01T06:26:19;-0.30;99.90
13482;DHT22;6813;60.352;15.746;2023-02-01T06:28:45;-0.30;99.90
13482;DHT22;6813;60.352;15.746;2023-02-01T06:31:11;-0.20;99.90
13482;DHT22;6813;60.352;15.746;2023-02-01T06:33:37;-0.10;99.90
13482;DHT22;6813;60.352;15.746;2023-02-01T06:36:05;-0.10;99.90
13482;DHT22;6813;60.352;15.746;2023-02-01T06:38:32;-0.20;99.90
13482;DHT22;6813;60.352;15.746;2023-02-01T06:41:00;-0.10;99.90
13482;DHT22;6813;60.352;15.746;2023-02-01T06:43:27;-0.10;99.90
13482;DHT22;6813;60.352;15.746;2023-02-01T06:45:53;-0.20;99.90
13482;DHT22;6813;60.352;15.746;2023-02-01T06:48:19;-0.20;99.90
13482;DHT22;6813;60.352;15.746;2023-02-01T06:50:45;-0.20;99.90
13482;DHT22;6813;60.352;15.746;2023-02-01T06:53:11;-0.10;99.90
13482;DHT22;6813;60.352;15.746;2023-02-01T06:55:37;0.00;99.90
13482;DHT22;6813;60.352;15.746;2023-02-01T06:58:02;-0.10;99.90
13482;DHT22;6813;60.352;15.746;2023-02-01T07:00:29;-0.10;99.90
13482;DHT22;6813;60.352;15.746;2023-02-01T07:02:55;-0.10;99.90
13482;DHT22;6813;60.352;15.746;2023-02-01T07:05:22;-0.20;99.90
13482;DHT22;6813;60.352;15.746;2023-02-01T07:07:48;-0.30;99.90
13482;DHT22;6813;60.352;15.746;2023-02-01T07:10:14;-0.40;99.90
13482;DHT22;6813;60.352;15.746;2023-02-01T07:12:39;-0.60;99.90
13482;DHT22;6813;60.352;15.746;2023-02-01T07:15:06;-0.80;99.90
13482;DHT22;6813;60.352;15.746;2023-02-01T07:17:32;-0.90;99.90
13482;DHT22;6813;60.352;15.746;2023-02-01T07:19:58;-0.70;99.90
13482;DHT22;6813;60.352;15.746;2023-02-01T07:22:27;-0.70;99.90
13482;DHT22;6813;60.352;15.746;2023-02-01T07:24:53;-0.60;99.90
13482;DHT22;6813;60.352;15.746;2023-02-01T07:27:18;-0.50;99.90
13482;DHT22;6813;60.352;15.746;2023-02-01T07:29:45;-0.30;99.90
13482;DHT22;6813;60.352;15.746;2023-02-01T07:32:11;-0.10;99.90
13482;DHT22;6813;60.352;15.746;2023-02-01T07:34:36;-0.10;99.90
13482;DHT22;6813;60.352;15.746;2023-02-01T07:37:02;-0.10;99.90
13482;DHT22;6813;60.352;15.746;2023-02-01T07:39:28;-0.10;99.90
13482;DHT22;6813;60.352;15.746;2023-02-01T07:41:57;-0.10;99.90
13482;DHT22;6813;60.352;15.746;2023-02-01T07:44:23;-0.10;99.90
13482;DHT22;6813;60.352;15.746;2023-02-01T07:46:49;-0.10;99.90
13482;DHT22;6813;60.352;15.746;2023-02-01T07:49:15;-0.10;99.90
13482;DHT22;6813;60.352;15.746;2023-02-01T07:51:42;-0.10;99.90
13482;DHT22;6813;60.352;15.746;2023-02-01T07:54:08;-0.10;99.90
13482;DHT22;6813;60.352;15.746;2023-02-01T07:56:34;-0.20;99.90
13482;DHT22;6813;60.352;15.746;2023-02-01T07:59:00;-0.20;99.90
13482;DHT22;6813;60.352;15.746;2023-02-01T08:01:27;-0.20;99.90
13482;DHT22;6813;60.352;15.746;2023-02-01T08:03:58;-0.10;99.90
13482;DHT22;6813;60.352;15.746;2023-02-01T08:06:31;-0.20;99.90
13482;DHT22;6813;60.352;15.746;2023-02-01T08:08:57;-0.10;99.90
13482;DHT22;6813;60.352;15.746;2023-02-01T08:11:24;-0.10;99.90
13482;DHT22;6813;60.352;15.746;2023-02-01T08:13:50;-0.10;99.90
13482;DHT22;6813;60.352;15.746;2023-02-01T08:16:17;-0.10;99.90
13482;DHT22;6813;60.352;15.746;2023-02-01T08:18:44;0.00;99.90
13482;DHT22;6813;60.352;15.746;2023-02-01T08:21:21;0.00;99.90
13482;DHT22;6813;60.352;15.746;2023-02-01T08:23:48;0.00;99.90
13482;DHT22;6813;60.352;15.746;2023-02-01T08:26:17;0.00;99.90
13482;DHT22;6813;60.352;15.746;2023-02-01T08:28:48;0.00;99.90
13482;DHT22;6813;60.352;15.746;2023-02-01T08:31:16;0.10;99.90
13482;DHT22;6813;60.352;15.746;2023-02-01T08:33:43;0.20;99.90
13482;DHT22;6813;60.352;15.746;2023-02-01T08:36:10;0.30;99.90
13482;DHT22;6813;60.352;15.746;2023-02-01T08:38:37;0.50;99.90
13482;DHT22;6813;60.352;15.746;2023-02-01T08:41:15;0.80;99.90
13482;DHT22;6813;60.352;15.746;2023-02-01T08:43:42;1.00;99.90
13482;DHT22;6813;60.352;15.746;2023-02-01T08:46:09;1.10;99.90
13482;DHT22;6813;60.352;15.746;2023-02-01T08:48:35;1.10;99.90
13482;DHT22;6813;60.352;15.746;2023-02-01T08:51:09;1.00;99.90
13482;DHT22;6813;60.352;15.746;2023-02-01T08:53:36;0.90;99.90
13482;DHT22;6813;60.352;15.746;2023-02-01T08:56:02;0.90;99.90
13482;DHT22;6813;60.352;15.746;2023-02-01T08:58:28;0.90;99.90
13482;DHT22;6813;60.352;15.746;2023-02-01T09:00:54;0.80;99.90
13482;DHT22;6813;60.352;15.746;2023-02-01T09:03:20;0.80;99.90
13482;DHT22;6813;60.352;15.746;2023-02-01T09:05:46;0.80;99.90
13482;DHT22;6813;60.352;15.746;2023-02-01T09:08:13;0.90;99.90
13482;DHT22;6813;60.352;15.746;2023-02-01T09:10:41;0.80;99.90
13482;DHT22;6813;60.352;15.746;2023-02-01T09:13:07;0.90;99.90
13482;DHT22;6813;60.352;15.746;2023-02-01T09:15:34;0.80;99.90
13482;DHT22;6813;60.352;15.746;2023-02-01T09:17:59;0.90;99.90
13482;DHT22;6813;60.352;15.746;2023-02-01T09:20:25;1.00;99.90
13482;DHT22;6813;60.352;15.746;2023-02-01T09:22:52;1.20;99.90
13482;DHT22;6813;60.352;15.746;2023-02-01T09:25:17;1.30;99.90
13482;DHT22;6813;60.352;15.746;2023-02-01T09:27:43;1.50;99.90
13482;DHT22;6813;60.352;15.746;2023-02-01T09:30:09;1.60;99.90
13482;DHT22;6813;60.352;15.746;2023-02-01T09:32:36;1.80;99.90
13482;DHT22;6813;60.352;15.746;2023-02-01T09:35:02;2.10;99.90
13482;DHT22;6813;60.352;15.746;2023-02-01T09:37:28;2.20;99.90
13482;DHT22;6813;60.352;15.746;2023-02-01T09:39:53;2.30;99.90
13482;DHT22;6813;60.352;15.746;2023-02-01T09:47:29;2.10;99.90
13482;DHT22;6813;60.352;15.746;2023-02-01T09:50:10;2.00;99.90
13482;DHT22;6813;60.352;15.746;2023-02-01T09:53:10;1.70;99.90
13482;DHT22;6813;60.352;15.746;2023-02-01T09:55:41;1.60;99.90
13482;DHT22;6813;60.352;15.746;2023-02-01T10:01:04;1.70;99.90
13482;DHT22;6813;60.352;15.746;2023-02-01T10:03:33;1.50;99.90
13482;DHT22;6813;60.352;15.746;2023-02-01T10:09:24;1.50;99.90
13482;DHT22;6813;60.352;15.746;2023-02-01T10:22:53;1.30;99.90
13482;DHT22;6813;60.352;15.746;2023-02-01T10:26:06;1.20;99.90
13482;DHT22;6813;60.352;15.746;2023-02-01T10:28:24;1.20;99.90
13482;DHT22;6813;60.352;15.746;2023-02-01T10:30:54;1.30;99.90
13482;DHT22;6813;60.352;15.746;2023-02-01T10:33:26;1.30;99.90
13482;DHT22;6813;60.352;15.746;2023-02-01T10:36:13;1.30;99.90
13482;DHT22;6813;60.352;15.746;2023-02-01T10:38:39;1.30;99.90
13482;DHT22;6813;60.352;15.746;2023-02-01T10:41:16;1.20;99.90
13482;DHT22;6813;60.352;15.746;2023-02-01T10:43:44;1.30;99.90
13482;DHT22;6813;60.352;15.746;2023-02-01T10:46:12;1.30;99.90
13482;DHT22;6813;60.352;15.746;2023-02-01T10:48:38;1.20;99.90
13482;DHT22;6813;60.352;15.746;2023-02-01T10:51:12;1.10;99.90
13482;DHT22;6813;60.352;15.746;2023-02-01T10:53:54;1.20;99.90
13482;DHT22;6813;60.352;15.746;2023-02-01T10:56:25;1.30;99.90
13482;DHT22;6813;60.352;15.746;2023-02-01T10:58:58;1.40;99.90
13482;DHT22;6813;60.352;15.746;2023-02-01T11:01:29;1.20;99.90
13482;DHT22;6813;60.352;15.746;2023-02-01T11:04:00;1.20;99.90
13482;DHT22;6813;60.352;15.746;2023-02-01T11:06:35;1.20;99.90
13482;DHT22;6813;60.352;15.746;2023-02-01T11:09:22;1.30;99.90
13482;DHT22;6813;60.352;15.746;2023-02-01T11:19:43;1.20;99.90
13482;DHT22;6813;60.352;15.746;2023-02-01T11:22:10;1.20;99.90
13482;DHT22;6813;60.352;15.746;2023-02-01T11:24:37;1.10;99.90
13482;DHT22;6813;60.352;15.746;2023-02-01T11:27:12;1.20;99.90
13482;DHT22;6813;60.352;15.746;2023-02-01T11:29:43;1.20;99.90
13482;DHT22;6813;60.352;15.746;2023-02-01T11:32:12;1.30;99.90
13482;DHT22;6813;60.352;15.746;2023-02-01T11:34:46;1.40;99.90
13482;DHT22;6813;60.352;15.746;2023-02-01T11:37:21;1.30;99.90
13482;DHT22;6813;60.352;15.746;2023-02-01T11:45:34;1.30;99.90
13482;DHT22;6813;60.352;15.746;2023-02-01T11:48:00;1.20;99.90
13482;DHT22;6813;60.352;15.746;2023-02-01T12:01:50;1.00;99.90
13482;DHT22;6813;60.352;15.746;2023-02-01T12:07:17;0.70;99.90
13482;DHT22;6813;60.352;15.746;2023-02-01T12:24:29;0.80;99.90
13482;DHT22;6813;60.352;15.746;2023-02-01T12:27:04;0.80;99.90
13482;DHT22;6813;60.352;15.746;2023-02-01T12:41:16;0.80;99.90
13482;DHT22;6813;60.352;15.746;2023-02-01T12:43:56;0.60;99.90
13482;DHT22;6813;60.352;15.746;2023-02-01T12:46:31;0.70;99.90
13482;DHT22;6813;60.352;15.746;2023-02-01T12:51:41;0.60;99.90
13482;DHT22;6813;60.352;15.746;2023-02-01T12:57:13;0.80;99.90
13482;DHT22;6813;60.352;15.746;2023-02-01T13:00:12;0.80;99.90
13482;DHT22;6813;60.352;15.746;2023-02-01T13:05:17;0.80;99.90
13482;DHT22;6813;60.352;15.746;2023-02-01T13:08:00;0.70;99.90
13482;DHT22;6813;60.352;15.746;2023-02-01T13:10:38;0.70;99.90
13482;DHT22;6813;60.352;15.746;2023-02-01T13:13:32;0.80;99.90
13482;DHT22;6813;60.352;15.746;2023-02-01T13:19:17;1.00;99.90
13482;DHT22;6813;60.352;15.746;2023-02-01T13:21:48;0.90;99.90
13482;DHT22;6813;60.352;15.746;2023-02-01T13:24:50;0.90;99.90
13482;DHT22;6813;60.352;15.746;2023-02-01T13:27:17;0.80;99.90
13482;DHT22;6813;60.352;15.746;2023-02-01T13:41:08;1.10;99.90
13482;DHT22;6813;60.352;15.746;2023-02-01T13:43:39;1.10;99.90
13482;DHT22;6813;60.352;15.746;2023-02-01T13:46:09;1.20;99.90
13482;DHT22;6813;60.352;15.746;2023-02-01T13:48:51;1.20;99.90
13482;DHT22;6813;60.352;15.746;2023-02-01T13:51:33;1.10;99.90
13482;DHT22;6813;60.352;15.746;2023-02-01T13:53:59;1.10;99.90
13482;DHT22;6813;60.352;15.746;2023-02-01T13:56:26;1.10;99.90
13482;DHT22;6813;60.352;15.746;2023-02-01T13:58:52;1.10;99.90
13482;DHT22;6813;60.352;15.746;2023-02-01T14:03:53;1.10;99.90
13482;DHT22;6813;60.352;15.746;2023-02-01T14:24:55;1.00;99.90
13482;DHT22;6813;60.352;15.746;2023-02-01T14:27:25;0.90;99.90
13482;DHT22;6813;60.352;15.746;2023-02-01T14:29:56;0.90;99.90
13482;DHT22;6813;60.352;15.746;2023-02-01T14:32:26;0.80;99.90
13482;DHT22;6813;60.352;15.746;2023-02-01T14:34:58;0.70;99.90
13482;DHT22;6813;60.352;15.746;2023-02-01T14:37:31;0.70;99.90
13482;DHT22;6813;60.352;15.746;2023-02-01T14:42:49;0.80;99.90
13482;DHT22;6813;60.352;15.746;2023-02-01T14:55:53;0.50;99.90
13482;DHT22;6813;60.352;15.746;2023-02-01T15:01:00;0.40;99.90
13482;DHT22;6813;60.352;15.746;2023-02-01T15:06:39;0.20;99.90
13482;DHT22;6813;60.352;15.746;2023-02-01T15:09:31;0.20;99.90
13482;DHT22;6813;60.352;15.746;2023-02-01T15:14:37;0.40;99.90
13482;DHT22;6813;60.352;15.746;2023-02-01T15:17:27;0.50;99.90
13482;DHT22;6813;60.352;15.746;2023-02-01T15:20:20;0.40;99.90
13482;DHT22;6813;60.352;15.746;2023-02-01T15:23:00;0.30;99.90
13482;DHT22;6813;60.352;15.746;2023-02-01T15:25:29;0.30;99.90
13482;DHT22;6813;60.352;15.746;2023-02-01T15:27:55;0.20;99.90
13482;DHT22;6813;60.352;15.746;2023-02-01T15:30:29;0.30;99.90
13482;DHT22;6813;60.352;15.746;2023-02-01T15:33:07;0.30;99.90
13482;DHT22;6813;60.352;15.746;2023-02-01T15:35:40;0.30;99.90
13482;DHT22;6813;60.352;15.746;2023-02-01T15:41:15;0.30;99.90
13482;DHT22;6813;60.352;15.746;2023-02-01T15:46:38;0.20;99.90
13482;DHT22;6813;60.352;15.746;2023-02-01T15:49:05;0.30;99.90
13482;DHT22;6813;60.352;15.746;2023-02-01T15:51:44;0.40;99.90
13482;DHT22;6813;60.352;15.746;2023-02-01T15:54:28;0.40;99.90
13482;DHT22;6813;60.352;15.746;2023-02-01T15:56:58;0.50;99.90
13482;DHT22;6813;60.352;15.746;2023-02-01T15:59:32;0.60;99.90
13482;DHT22;6813;60.352;15.746;2023-02-01T16:02:00;0.70;99.90
13482;DHT22;6813;60.352;15.746;2023-02-01T16:04:28;0.80;99.90
13482;DHT22;6813;60.352;15.746;2023-02-01T16:07:03;0.80;99.90
13482;DHT22;6813;60.352;15.746;2023-02-01T16:09:52;0.80;99.90
13482;DHT22;6813;60.352;15.746;2023-02-01T16:12:51;0.70;99.90
13482;DHT22;6813;60.352;15.746;2023-02-01T16:15:19;0.60;99.90
13482;DHT22;6813;60.352;15.746;2023-02-01T16:17:45;0.60;99.90
13482;DHT22;6813;60.352;15.746;2023-02-01T16:20:11;0.60;99.90
13482;DHT22;6813;60.352;15.746;2023-02-01T16:22:37;0.50;99.90
13482;DHT22;6813;60.352;15.746;2023-02-01T16:25:03;0.50;99.90
13482;DHT22;6813;60.352;15.746;2023-02-01T16:27:29;0.60;99.90
13482;DHT22;6813;60.352;15.746;2023-02-01T16:29:54;0.60;99.90
13482;DHT22;6813;60.352;15.746;2023-02-01T16:32:22;0.60;99.90
13482;DHT22;6813;60.352;15.746;2023-02-01T16:34:48;0.60;99.90
13482;DHT22;6813;60.352;15.746;2023-02-01T16:37:19;0.70;99.90
13482;DHT22;6813;60.352;15.746;2023-02-01T16:39:46;0.70;99.90
13482;DHT22;6813;60.352;15.746;2023-02-01T16:42:13;0.70;99.90
13482;DHT22;6813;60.352;15.746;2023-02-01T16:44:40;0.70;99.90
13482;DHT22;6813;60.352;15.746;2023-02-01T16:47:15;0.70;99.90
13482;DHT22;6813;60.352;15.746;2023-02-01T16:49:42;0.70;99.90
13482;DHT22;6813;60.352;15.746;2023-02-01T16:52:16;0.70;99.90
13482;DHT22;6813;60.352;15.746;2023-02-01T16:54:42;0.70;99.90
13482;DHT22;6813;60.352;15.746;2023-02-01T16:57:12;0.60;99.90
13482;DHT22;6813;60.352;15.746;2023-02-01T16:59:39;0.50;99.90
13482;DHT22;6813;60.352;15.746;2023-02-01T17:02:04;0.50;99.90
13482;DHT22;6813;60.352;15.746;2023-02-01T17:04:30;0.40;99.90
13482;DHT22;6813;60.352;15.746;2023-02-01T17:06:56;0.30;99.90
13482;DHT22;6813;60.352;15.746;2023-02-01T17:09:24;0.10;99.90
13482;DHT22;6813;60.352;15.746;2023-02-01T17:11:50;0.00;99.90
13482;DHT22;6813;60.352;15.746;2023-02-01T17:14:19;-0.10;99.90
13482;DHT22;6813;60.352;15.746;2023-02-01T17:16:47;-0.10;99.90
13482;DHT22;6813;60.352;15.746;2023-02-01T17:19:20;-0.10;99.90
13482;DHT22;6813;60.352;15.746;2023-02-01T17:21:50;-0.10;99.90
13482;DHT22;6813;60.352;15.746;2023-02-01T17:24:19;-0.10;99.90
13482;DHT22;6813;60.352;15.746;2023-02-01T17:26:45;-0.30;99.90
13482;DHT22;6813;60.352;15.746;2023-02-01T17:29:11;-0.40;99.90
13482;DHT22;6813;60.352;15.746;2023-02-01T17:31:43;-0.40;99.90
13482;DHT22;6813;60.352;15.746;2023-02-01T17:34:13;-0.40;99.90
13482;DHT22;6813;60.352;15.746;2023-02-01T17:36:44;-0.30;99.90
13482;DHT22;6813;60.352;15.746;2023-02-01T17:39:11;-0.30;99.90
13482;DHT22;6813;60.352;15.746;2023-02-01T17:41:57;-0.30;99.90
13482;DHT22;6813;60.352;15.746;2023-02-01T17:44:23;-0.30;99.90
13482;DHT22;6813;60.352;15.746;2023-02-01T17:46:49;-0.30;99.90
13482;DHT22;6813;60.352;15.746;2023-02-01T17:49:15;-0.30;99.90
13482;DHT22;6813;60.352;15.746;2023-02-01T17:51:41;-0.30;99.90
13482;DHT22;6813;60.352;15.746;2023-02-01T17:54:13;-0.40;99.90
13482;DHT22;6813;60.352;15.746;2023-02-01T17:56:39;-0.40;99.90
13482;DHT22;6813;60.352;15.746;2023-02-01T17:59:05;-0.40;99.90
13482;DHT22;6813;60.352;15.746;2023-02-01T18:01:31;-0.50;99.90
13482;DHT22;6813;60.352;15.746;2023-02-01T18:03:57;-0.50;99.90
13482;DHT22;6813;60.352;15.746;2023-02-01T18:06:24;-0.50;99.90
13482;DHT22;6813;60.352;15.746;2023-02-01T18:08:55;-0.50;99.90
13482;DHT22;6813;60.352;15.746;2023-02-01T18:11:22;-0.60;99.90
13482;DHT22;6813;60.352;15.746;2023-02-01T18:13:51;-0.70;99.90
13482;DHT22;6813;60.352;15.746;2023-02-01T18:16:26;-0.70;99.90
13482;DHT22;6813;60.352;15.746;2023-02-01T18:18:52;-0.80;99.90
13482;DHT22;6813;60.352;15.746;2023-02-01T18:21:20;-0.80;99.90
13482;DHT22;6813;60.352;15.746;2023-02-01T18:23:47;-0.80;99.90
13482;DHT22;6813;60.352;15.746;2023-02-01T18:26:15;-0.90;99.90
13482;DHT22;6813;60.352;15.746;2023-02-01T18:28:41;-1.00;99.90
13482;DHT22;6813;60.352;15.746;2023-02-01T18:33:47;-1.10;99.90
13482;DHT22;6813;60.352;15.746;2023-02-01T18:36:13;-1.10;99.90
13482;DHT22;6813;60.352;15.746;2023-02-01T18:38:40;-1.10;99.90
13482;DHT22;6813;60.352;15.746;2023-02-01T18:41:19;-1.20;99.90
13482;DHT22;6813;60.352;15.746;2023-02-01T18:43:46;-1.20;99.90
13482;DHT22;6813;60.352;15.746;2023-02-01T18:46:13;-1.30;99.90
13482;DHT22;6813;60.352;15.746;2023-02-01T18:48:40;-1.30;99.90
13482;DHT22;6813;60.352;15.746;2023-02-01T18:51:07;-1.40;99.90
13482;DHT22;6813;60.352;15.746;2023-02-01T18:53:34;-1.40;99.90
13482;DHT22;6813;60.352;15.746;2023-02-01T18:56:00;-1.40;99.90
13482;DHT22;6813;60.352;15.746;2023-02-01T18:58:27;-1.40;99.90
13482;DHT22;6813;60.352;15.746;2023-02-01T19:00:54;-1.40;99.90
13482;DHT22;6813;60.352;15.746;2023-02-01T19:03:20;-1.50;99.90